createdAt,value
2018-07-07T00:00:20.203Z,16.10
2018-07-07T00:05:23.945Z,16.20
2018-07-07T00:10:27.184Z,16.00
2018-07-07T00:15:30.461Z,16.00
2018-07-07T00:20:34.115Z,16.00
2018-07-07T00:25:37.831Z,15.90
2018-07-07T00:30:41.367Z,15.80
2018-07-07T00:35:49.679Z,15.80
2018-07-07T00:40:54.109Z,15.90
2018-07-07T00:45:57.539Z,15.90
2018-07-07T00:51:01.192Z,15.90
2018-07-07T00:56:05.297Z,15.80
2018-07-07T01:06:12.918Z,15.80
2018-07-07T01:11:16.581Z,15.80
2018-07-07T01:16:19.827Z,15.80
2018-07-07T01:21:23.091Z,15.90
2018-07-07T01:26:26.435Z,15.90
2018-07-07T01:31:29.674Z,15.70
2018-07-07T01:36:32.955Z,15.60
2018-07-07T01:41:36.195Z,15.40
2018-07-07T01:51:42.521Z,15.40
2018-07-07T01:56:45.762Z,15.30
2018-07-07T02:01:49.006Z,15.10
2018-07-07T02:06:52.295Z,15.00
2018-07-07T02:11:55.551Z,14.80
2018-07-07T02:16:58.817Z,14.80
2018-07-07T02:22:02.264Z,14.80
2018-07-07T02:27:05.541Z,14.70
2018-07-07T02:32:08.789Z,14.70
2018-07-07T02:37:12.104Z,14.70
2018-07-07T02:42:15.352Z,14.50
2018-07-07T02:47:18.623Z,14.50
2018-07-07T02:52:21.874Z,14.40
2018-07-07T02:57:25.143Z,14.40
2018-07-07T03:02:28.424Z,14.30
2018-07-07T03:12:34.719Z,14.20
2018-07-07T03:17:38.243Z,14.20
2018-07-07T03:22:41.513Z,14.20
2018-07-07T03:27:44.765Z,14.20
2018-07-07T03:32:48.034Z,14.20
2018-07-07T03:37:51.801Z,14.20
2018-07-07T03:42:55.077Z,14.20
2018-07-07T03:47:58.380Z,14.20
2018-07-07T03:58:04.682Z,14.10
2018-07-07T04:03:07.953Z,14.10
2018-07-07T04:08:11.256Z,14.10
2018-07-07T04:13:14.536Z,14.20
2018-07-07T04:18:23.879Z,14.20
2018-07-07T04:23:27.148Z,14.20
2018-07-07T04:28:30.851Z,14.20
2018-07-07T04:33:34.129Z,14.30
2018-07-07T04:38:37.408Z,14.30
2018-07-07T04:43:40.679Z,14.40
2018-07-07T04:48:43.935Z,14.50
2018-07-07T04:53:47.217Z,14.60
2018-07-07T04:58:50.481Z,14.70
2018-07-07T05:03:53.758Z,14.80
2018-07-07T05:08:57.021Z,14.90
2018-07-07T05:14:00.294Z,15.20
2018-07-07T05:19:03.552Z,15.20
2018-07-07T05:24:06.924Z,15.70
2018-07-07T05:29:10.188Z,15.90
2018-07-07T05:34:13.460Z,16.20
2018-07-07T05:44:19.740Z,16.30
2018-07-07T05:49:22.999Z,16.60
2018-07-07T05:54:26.278Z,16.60
2018-07-07T05:59:29.845Z,16.70
2018-07-07T06:04:33.099Z,16.90
2018-07-07T06:09:36.368Z,17.10
2018-07-07T06:14:39.631Z,17.20
2018-07-07T06:19:42.930Z,17.50
2018-07-07T06:24:46.277Z,18.10
2018-07-07T06:29:49.563Z,18.10
2018-07-07T06:34:53.269Z,18.40
2018-07-07T06:39:56.558Z,18.40
2018-07-07T06:44:59.813Z,18.60
2018-07-07T06:50:03.105Z,19.30
2018-07-07T06:55:06.937Z,19.10
2018-07-07T07:00:10.927Z,19.30
2018-07-07T07:05:14.268Z,19.20
2018-07-07T07:10:17.633Z,18.90
2018-07-07T07:15:21.528Z,19.10
2018-07-07T07:20:25.972Z,19.50
2018-07-07T07:25:32.544Z,20.10
2018-07-07T07:35:41.083Z,21.00
2018-07-07T07:40:44.369Z,21.50
2018-07-07T07:45:47.630Z,22.60
2018-07-07T07:50:52.520Z,23.20
2018-07-07T07:55:57.134Z,23.10
2018-07-07T08:06:05.276Z,23.50
2018-07-07T08:16:13.249Z,24.40
2018-07-07T08:21:17.295Z,24.80
2018-07-07T08:26:20.873Z,25.00
2018-07-07T08:31:24.933Z,25.30
2018-07-07T08:41:32.103Z,24.30
2018-07-07T08:46:42.415Z,25.30
2018-07-07T08:51:46.553Z,25.50
2018-07-07T08:56:51.385Z,25.00
2018-07-07T09:01:54.952Z,24.30
2018-07-07T09:06:58.970Z,24.70
2018-07-07T09:12:02.361Z,24.10
2018-07-07T09:17:06.758Z,23.50
2018-07-07T09:22:10.893Z,23.80
2018-07-07T09:27:15.496Z,23.20
2018-07-07T09:37:22.225Z,24.40
2018-07-07T09:42:25.480Z,22.70
2018-07-07T09:47:29.212Z,22.50
2018-07-07T09:52:33.390Z,22.40
2018-07-07T09:57:37.688Z,23.40
2018-07-07T10:02:42.141Z,24.60
2018-07-07T10:07:45.674Z,24.30
2018-07-07T10:12:49.133Z,24.30
2018-07-07T10:17:52.688Z,24.50
2018-07-07T10:22:56.345Z,24.20
2018-07-07T10:28:00.134Z,24.30
2018-07-07T10:33:04.142Z,24.10
2018-07-07T10:38:07.602Z,24.60
2018-07-07T10:43:12.041Z,26.70
2018-07-07T10:48:15.517Z,26.50
2018-07-07T10:53:20.403Z,25.10
2018-07-07T10:58:24.195Z,24.10
2018-07-07T11:03:28.954Z,24.80
2018-07-07T11:08:32.330Z,25.10
2018-07-07T11:13:36.795Z,25.10
2018-07-07T11:18:42.074Z,25.50
2018-07-07T11:23:45.825Z,25.90
2018-07-07T11:28:49.534Z,26.60
2018-07-07T11:33:54.048Z,27.10
2018-07-07T11:44:01.810Z,26.10
2018-07-07T11:49:05.340Z,25.20
2018-07-07T11:54:08.661Z,25.70
2018-07-07T11:59:12.061Z,26.00
2018-07-07T12:04:15.924Z,26.30
2018-07-07T12:09:19.389Z,27.20
2018-07-07T12:14:22.780Z,27.10
2018-07-07T12:19:26.391Z,26.70
2018-07-07T12:24:30.086Z,29.00
2018-07-07T12:29:33.725Z,27.40
2018-07-07T12:34:37.399Z,28.10
2018-07-07T12:39:41.012Z,27.80
2018-07-07T12:44:44.692Z,26.70
